Burley Municipal Airport Burley US
ICAO: KBYI
IATA: BYI
Category: Medium
Scheduled Services: No

Elevation: 4150 ft
TransAlt. 18000 ft.

Airport Communications:
TWIN FALLS APP/DEP:126.7
ASOS:135.575
SALT LAKE CITY CNTR:118.05
CTAF:122.9
BOISE RDO:122.05

KBYI Zoom In..

If you have problems with the map follow the link
https://www.worldairports.se/pages/airport.php?
ICAO=KBYI

Runways:

(A) RW 02 length 4092 ft width 80 ft
---- / hdg 22

(B) RW 06 length 4072 ft width 75 ft
---- / hdg 64

(C) RW 20 length 4092 ft width 80 ft
---- / hdg 202

(D) RW 24 length 4072 ft width 75 ft
---- / hdg 244

Location; KBYI
Day. 11 / Time. 13.53 Zulu
* Altimeter: 30.13
* Temperature: -02° c. -28.4°f.
* Wind from: 000° Speed 00 kn.
Dewpoint: -05° c.
Visibility: 10 Statute Miles.
Clouds: Broken 6000 ft.
Clouds: Overcast 9000 ft.

KBYI 111353Z AUTO 00000KT 10SM BKN060 OVC090 M02/M05 A3013 RMK AO2 SLP222 T10221050


Wind - Calm.

 
 
jpsmedia worldairports.se 2019   terms of use